Time;durP1;ratioP1;P1;durP2;ratioP2;P2;SDS_P1;SDS_P2;PMS_P1;PMS_P2;Temp;Humidity;BMP_temperature;BMP_pressure;BME280_temperature;BME280_humidity;BME280_pressure;Samples;Min_cycle;Max_cycle;Signal;HPM_P1;HPM_P2
2023/05/11 00:01:46;;;;;;;7.38;5.13;;;11.60;99.90;;;;;;5069834;28;20120;-88
2023/05/11 00:04:12;;;;;;;9.50;6.03;;;11.00;99.90;;;;;;5103567;28;20605;-88
2023/05/11 00:06:37;;;;;;;8.45;5.05;;;11.00;99.90;;;;;;5087496;28;20040;-88
2023/05/11 00:09:03;;;;;;;9.05;5.47;;;11.00;99.90;;;;;;5086191;28;20510;-88
2023/05/11 00:11:30;;;;;;;7.70;5.22;;;11.00;99.90;;;;;;5087248;28;20036;-88
2023/05/11 00:13:55;;;;;;;13.27;5.00;;;11.00;99.90;;;;;;5085748;28;20046;-88
2023/05/11 00:16:21;;;;;;;7.97;4.82;;;11.00;99.90;;;;;;5089580;28;20122;-88
2023/05/11 00:18:47;;;;;;;8.50;5.70;;;11.00;99.90;;;;;;5073073;28;20721;-88
2023/05/11 00:21:13;;;;;;;8.48;4.95;;;11.00;99.90;;;;;;5107715;28;20451;-88
2023/05/11 00:23:39;;;;;;;7.80;4.90;;;11.00;99.90;;;;;;5108130;28;20390;-88
2023/05/11 00:26:05;;;;;;;6.53;4.68;;;10.70;99.90;;;;;;5090368;28;20569;-89
2023/05/11 00:28:31;;;;;;;14.20;5.22;;;10.90;99.90;;;;;;5074402;28;21103;-88
2023/05/11 00:30:57;;;;;;;12.95;5.32;;;10.90;99.90;;;;;;5072426;28;20496;-87
2023/05/11 00:33:23;;;;;;;7.05;5.13;;;10.90;99.90;;;;;;5073721;28;20047;-88
2023/05/11 00:35:50;;;;;;;8.10;5.53;;;11.00;99.90;;;;;;5107153;28;20054;-89
2023/05/11 00:38:16;;;;;;;19.23;5.53;;;10.90;99.90;;;;;;5107449;28;20040;-88
2023/05/11 00:40:41;;;;;;;10.30;5.22;;;10.90;99.90;;;;;;5092974;28;20176;-89
2023/05/11 00:43:07;;;;;;;16.08;6.20;;;10.90;99.90;;;;;;5108444;28;20116;-88
2023/05/11 00:45:34;;;;;;;7.72;5.75;;;10.90;99.90;;;;;;5092203;28;20036;-88
2023/05/11 00:48:00;;;;;;;7.63;5.47;;;10.90;99.90;;;;;;5090363;28;20381;-88
2023/05/11 00:50:26;;;;;;;12.80;6.45;;;10.90;99.90;;;;;;5073787;28;20058;-89
2023/05/11 00:52:52;;;;;;;16.13;5.75;;;10.90;99.90;;;;;;5107503;28;20039;-88
2023/05/11 00:55:22;;;;;;;11.32;5.50;;;10.90;99.90;;;;;;5090115;28;20130;-88
2023/05/11 00:57:48;;;;;;;17.05;6.13;;;10.90;99.90;;;;;;5091354;28;20031;-88
2023/05/11 01:00:14;;;;;;;8.60;4.88;;;10.90;99.90;;;;;;5076196;28;20492;-88
2023/05/11 01:02:40;;;;;;;15.27;5.18;;;11.00;99.90;;;;;;5095195;28;20044;-88
2023/05/11 01:05:06;;;;;;;8.82;4.97;;;10.90;99.90;;;;;;5110156;28;20531;-90
2023/05/11 01:07:45;;;;;;;14.82;5.35;;;10.90;99.90;;;;;;5076222;28;20480;-88
2023/05/11 01:10:18;;;;;;;8.77;5.70;;;10.90;99.90;;;;;;5109853;28;20043;-88
2023/05/11 01:13:02;;;;;;;6.85;4.90;;;10.90;99.90;;;;;;5093450;28;20497;-88
2023/05/11 01:15:38;;;;;;;57.85;6.40;;;11.00;99.90;;;;;;5110814;28;20051;-89
2023/05/11 01:18:13;;;;;;;50.40;5.75;;;10.90;99.90;;;;;;5109067;28;20044;-88
2023/05/11 01:20:44;;;;;;;16.13;5.55;;;10.90;99.90;;;;;;5092696;28;20071;-89
2023/05/11 01:23:26;;;;;;;8.07;5.35;;;10.90;99.90;;;;;;5093356;28;20404;-88
2023/05/11 01:26:34;;;;;;;11.73;5.82;;;10.90;99.90;;;;;;5090423;28;20058;-88
2023/05/11 01:29:37;;;;;;;15.25;5.95;;;10.90;99.90;;;;;;5091174;28;20043;-88
2023/05/11 01:32:09;;;;;;;18.95;5.45;;;11.00;99.90;;;;;;5091267;28;20507;-88
2023/05/11 01:34:39;;;;;;;5.37;3.73;;;11.00;99.90;;;;;;5090671;28;20067;-88
2023/05/11 01:37:20;;;;;;;8.38;5.65;;;11.00;99.90;;;;;;5107886;28;20047;-87
2023/05/11 01:39:56;;;;;;;18.55;5.93;;;11.00;99.90;;;;;;5088440;28;20086;-87
2023/05/11 01:42:44;;;;;;;45.03;6.22;;;11.00;99.90;;;;;;5089023;28;20043;-87
2023/05/11 01:45:12;;;;;;;37.42;5.55;;;11.00;99.90;;;;;;5107201;28;20038;-90
2023/05/11 01:47:40;;;;;;;35.15;5.35;;;10.90;99.90;;;;;;5105378;28;20145;-88
2023/05/11 01:50:07;;;;;;;62.50;7.57;;;10.90;99.90;;;;;;5106200;28;20039;-89
2023/05/11 01:52:36;;;;;;;22.05;5.35;;;10.90;99.90;;;;;;5105293;28;20085;-88
2023/05/11 01:55:04;;;;;;;35.75;5.82;;;10.80;99.90;;;;;;5105659;28;20504;-88
2023/05/11 01:57:31;;;;;;;59.80;5.65;;;10.80;99.90;;;;;;5088576;28;20036;-88
2023/05/11 01:59:59;;;;;;;7.07;5.05;;;10.80;99.90;;;;;;5088599;28;20040;-88
2023/05/11 02:02:26;;;;;;;77.30;5.80;;;10.80;99.90;;;;;;5106565;28;20039;-89
2023/05/11 02:04:53;;;;;;;44.38;5.22;;;10.90;99.90;;;;;;5104248;28;20047;-88
2023/05/11 02:07:21;;;;;;;8.63;4.63;;;10.80;99.90;;;;;;5105939;28;20047;-89
2023/05/11 02:09:48;;;;;;;5.15;4.10;;;10.80;99.90;;;;;;5087808;28;20048;-89
2023/05/11 02:12:17;;;;;;;6.13;4.30;;;10.80;99.90;;;;;;5088397;28;20047;-88
2023/05/11 02:14:44;;;;;;;12.77;3.72;;;10.80;99.90;;;;;;5088921;28;20036;-88
2023/05/11 02:17:10;;;;;;;10.38;3.97;;;10.80;99.90;;;;;;5071390;28;20400;-88
2023/05/11 02:19:38;;;;;;;12.23;4.03;;;10.80;99.90;;;;;;5088932;28;20103;-88
2023/05/11 02:22:05;;;;;;;26.17;3.88;;;10.80;99.90;;;;;;5070652;28;20066;-88
2023/05/11 02:24:32;;;;;;;7.90;4.10;;;10.80;99.90;;;;;;5088456;28;20162;-88
2023/05/11 02:26:58;;;;;;;21.98;4.40;;;10.80;99.90;;;;;;5087312;28;20081;-88
2023/05/11 02:29:24;;;;;;;21.30;3.75;;;10.80;99.90;;;;;;5087757;28;20047;-88
2023/05/11 02:32:15;;;;;;;36.72;4.57;;;10.80;99.90;;;;;;5088253;28;20044;-88
2023/05/11 02:34:46;;;;;;;38.90;4.47;;;10.80;99.90;;;;;;5086109;28;20048;-87
2023/05/11 02:37:17;;;;;;;45.30;4.60;;;10.80;99.90;;;;;;5105355;28;20050;-87
2023/05/11 02:39:45;;;;;;;13.52;3.85;;;10.70;99.90;;;;;;5102956;28;20484;-87
2023/05/11 02:42:20;;;;;;;6.20;4.30;;;10.80;99.90;;;;;;5105099;28;20096;-87
2023/05/11 02:45:02;;;;;;;4.93;3.65;;;10.70;99.90;;;;;;5104993;28;20047;-87
2023/05/11 02:47:31;;;;;;;5.75;3.65;;;10.90;99.90;;;;;;5103598;28;20507;-87
2023/05/11 02:50:00;;;;;;;10.95;4.45;;;10.70;99.90;;;;;;5105336;28;20092;-88
2023/05/11 02:52:27;;;;;;;7.43;3.92;;;10.70;99.90;;;;;;5087036;28;20078;-87
2023/05/11 02:54:55;;;;;;;27.10;4.78;;;10.80;99.90;;;;;;5104519;28;20044;-87
2023/05/11 02:57:23;;;;;;;12.73;4.53;;;10.80;99.90;;;;;;5087073;28;20047;-88
2023/05/11 02:59:48;;;;;;;20.42;5.28;;;10.70;99.90;;;;;;5086991;28;20048;-88
2023/05/11 03:02:14;;;;;;;57.40;6.80;;;10.90;99.90;;;;;;5087800;28;20059;-88
2023/05/11 03:04:40;;;;;;;16.90;5.88;;;10.80;99.90;;;;;;5086232;28;20070;-88
2023/05/11 03:07:06;;;;;;;12.38;5.60;;;10.70;99.90;;;;;;5087676;28;20046;-88
2023/05/11 03:09:33;;;;;;;27.15;6.50;;;10.70;99.90;;;;;;5086209;28;20047;-87
2023/05/11 03:12:01;;;;;;;29.65;6.78;;;10.70;99.90;;;;;;5104084;28;20039;-87
2023/05/11 03:14:27;;;;;;;15.82;6.32;;;10.70;99.90;;;;;;5087545;28;20101;-87
2023/05/11 03:16:55;;;;;;;33.20;7.70;;;10.80;99.90;;;;;;5086238;28;20055;-86
2023/05/11 03:19:21;;;;;;;25.02;8.35;;;10.70;99.90;;;;;;5088375;28;20507;-87
2023/05/11 03:21:50;;;;;;;35.63;8.75;;;10.80;99.90;;;;;;5085832;28;20114;-87
2023/05/11 03:24:17;;;;;;;49.17;10.32;;;10.80;99.90;;;;;;5088019;28;20044;-87
2023/05/11 03:26:43;;;;;;;25.90;11.45;;;10.80;99.90;;;;;;5086353;28;20050;-87
2023/05/11 03:29:12;;;;;;;37.65;11.00;;;11.60;99.90;;;;;;5087225;28;20129;-88
2023/05/11 03:31:38;;;;;;;23.40;9.20;;;10.80;99.90;;;;;;5121113;27;20039;-88
2023/05/11 03:34:03;;;;;;;98.22;15.05;;;10.80;99.90;;;;;;5087251;28;20408;-88
2023/05/11 03:36:31;;;;;;;52.13;14.18;;;10.80;99.90;;;;;;5070930;28;20092;-88
2023/05/11 03:38:57;;;;;;;38.30;13.77;;;10.80;99.90;;;;;;5069464;28;20091;-88
2023/05/11 03:41:26;;;;;;;84.50;14.52;;;10.80;99.90;;;;;;5104811;28;20107;-87
2023/05/11 03:43:54;;;;;;;30.10;13.07;;;10.80;99.90;;;;;;5086353;28;20044;-88
2023/05/11 03:46:22;;;;;;;30.30;13.93;;;10.90;99.90;;;;;;5121631;28;20416;-88
2023/05/11 03:48:49;;;;;;;31.05;13.05;;;10.90;99.90;;;;;;5087838;28;20126;-88
2023/05/11 03:51:15;;;;;;;29.00;13.30;;;10.90;99.90;;;;;;5089614;28;20396;-88
2023/05/11 03:53:40;;;;;;;37.95;14.63;;;10.90;99.90;;;;;;5091605;28;20044;-88
2023/05/11 03:56:07;;;;;;;41.08;16.73;;;10.90;99.90;;;;;;5089568;28;20075;-87
2023/05/11 03:58:36;;;;;;;37.85;15.02;;;10.90;99.90;;;;;;5092160;28;20047;-86
2023/05/11 04:01:02;;;;;;;66.57;17.90;;;10.90;99.90;;;;;;5106797;28;20126;-87
2023/05/11 04:03:28;;;;;;;77.35;19.48;;;10.90;99.90;;;;;;5073868;28;20082;-86
2023/05/11 04:05:54;;;;;;;55.17;17.42;;;10.90;99.90;;;;;;5073283;28;20083;-87
2023/05/11 04:08:20;;;;;;;49.67;17.35;;;10.90;99.90;;;;;;5073010;28;20036;-87
2023/05/11 04:10:47;;;;;;;50.00;18.42;;;10.90;99.90;;;;;;5092054;28;20047;-87
2023/05/11 04:13:13;;;;;;;45.35;16.90;;;11.00;99.90;;;;;;5123678;27;20071;-88
2023/05/11 04:15:38;;;;;;;28.80;13.50;;;11.00;99.90;;;;;;5091926;28;20079;-89
2023/05/11 04:18:04;;;;;;;36.97;14.80;;;11.00;99.90;;;;;;5089594;28;20526;-88
2023/05/11 04:20:30;;;;;;;46.17;16.60;;;11.00;99.90;;;;;;5125013;27;20078;-87
2023/05/11 04:22:56;;;;;;;41.10;14.95;;;11.00;99.90;;;;;;5090412;28;20432;-87
2023/05/11 04:25:21;;;;;;;42.78;15.85;;;11.00;99.90;;;;;;5089752;28;20054;-88
2023/05/11 04:27:47;;;;;;;34.95;14.13;;;11.00;99.90;;;;;;5074563;28;20044;-89
2023/05/11 04:30:13;;;;;;;36.92;14.57;;;11.00;99.90;;;;;;5072628;28;20146;-89
2023/05/11 04:32:38;;;;;;;38.95;14.77;;;11.00;99.90;;;;;;5092361;28;20046;-89
2023/05/11 04:35:04;;;;;;;56.10;14.70;;;11.00;99.90;;;;;;5089642;28;20039;-88
2023/05/11 04:37:30;;;;;;;31.27;12.68;;;11.00;99.90;;;;;;5073782;28;20043;-89
2023/05/11 04:39:56;;;;;;;26.23;12.43;;;11.00;99.90;;;;;;5089611;28;20104;-89
2023/05/11 04:42:22;;;;;;;30.20;13.20;;;10.90;99.90;;;;;;5107554;28;20166;-89
2023/05/11 04:44:48;;;;;;;45.10;13.05;;;11.00;99.90;;;;;;5091766;28;20079;-88
2023/05/11 04:47:14;;;;;;;29.17;11.60;;;11.00;99.90;;;;;;5106237;28;20409;-89
2023/05/11 04:49:40;;;;;;;29.27;10.75;;;11.00;99.90;;;;;;5125201;27;20111;-83
2023/05/11 04:52:05;;;;;;;28.65;10.65;;;11.00;99.90;;;;;;5071542;28;20035;-85
2023/05/11 04:54:31;;;;;;;25.48;11.00;;;11.00;99.90;;;;;;5074104;28;20059;-86
2023/05/11 04:56:57;;;;;;;22.17;10.48;;;11.00;99.90;;;;;;5088966;28;20043;-86
2023/05/11 04:59:23;;;;;;;17.27;8.90;;;11.00;99.90;;;;;;5106967;28;20083;-85
2023/05/11 05:01:49;;;;;;;15.65;8.63;;;11.20;99.90;;;;;;5088687;28;20502;-87
2023/05/11 05:04:15;;;;;;;16.35;8.85;;;10.90;99.90;;;;;;5088819;28;20035;-85
2023/05/11 05:06:41;;;;;;;16.17;9.20;;;11.00;99.90;;;;;;5074574;28;20055;-86
2023/05/11 05:09:06;;;;;;;25.48;10.52;;;11.00;99.90;;;;;;5106044;28;20051;-87
2023/05/11 05:11:32;;;;;;;22.13;11.25;;;11.00;99.90;;;;;;5109728;28;20040;-88
2023/05/11 05:13:58;;;;;;;20.92;12.13;;;11.00;99.90;;;;;;5091605;28;20035;-89
2023/05/11 05:16:23;;;;;;;23.02;12.55;;;11.00;99.90;;;;;;5075188;28;20043;-89
2023/05/11 05:18:49;;;;;;;19.77;12.57;;;11.00;99.90;;;;;;5092694;28;20048;-87
2023/05/11 05:21:15;;;;;;;20.35;11.45;;;11.00;99.90;;;;;;5074698;28;20130;-89
2023/05/11 05:23:40;;;;;;;20.05;11.02;;;11.00;99.90;;;;;;5093258;28;20044;-87
2023/05/11 05:26:06;;;;;;;15.20;8.65;;;11.80;99.90;;;;;;5089113;28;20134;-87
2023/05/11 05:28:34;;;;;;;10.88;6.72;;;11.00;99.90;;;;;;5074445;28;20043;-86
2023/05/11 05:31:00;;;;;;;10.00;6.65;;;11.00;99.90;;;;;;5072258;28;20047;-86
2023/05/11 05:33:26;;;;;;;10.82;7.30;;;11.40;99.90;;;;;;5089927;28;20066;-86
2023/05/11 05:35:51;;;;;;;11.25;7.22;;;11.10;99.90;;;;;;5088834;28;20052;-86
2023/05/11 05:38:17;;;;;;;9.35;6.15;;;11.10;99.90;;;;;;5088817;28;20048;-87
2023/05/11 05:40:43;;;;;;;9.77;6.40;;;11.40;99.90;;;;;;5090289;28;20120;-87
2023/05/11 05:43:08;;;;;;;9.50;6.38;;;11.10;99.90;;;;;;5088172;28;20339;-86
2023/05/11 05:45:34;;;;;;;9.80;6.40;;;11.20;99.90;;;;;;5090865;28;20126;-84
2023/05/11 05:48:00;;;;;;;10.90;6.28;;;11.20;99.90;;;;;;5087829;28;20450;-85
2023/05/11 05:50:26;;;;;;;11.77;7.45;;;11.20;99.90;;;;;;5089842;28;20110;-86
2023/05/11 05:52:52;;;;;;;10.70;6.43;;;11.30;99.90;;;;;;5105596;28;20043;-86
2023/05/11 05:55:18;;;;;;;11.68;7.60;;;11.30;99.90;;;;;;5088672;28;20047;-86
2023/05/11 05:57:43;;;;;;;10.45;7.00;;;11.40;99.90;;;;;;5105923;28;20050;-86
2023/05/11 06:00:10;;;;;;;11.50;7.15;;;11.40;99.90;;;;;;5087842;28;20423;-86
2023/05/11 06:02:35;;;;;;;10.82;6.90;;;11.40;99.90;;;;;;5089226;28;20043;-86
2023/05/11 06:05:01;;;;;;;10.07;6.07;;;11.40;99.90;;;;;;5087507;28;20092;-86
2023/05/11 06:07:27;;;;;;;10.50;6.18;;;11.50;99.90;;;;;;5089396;28;20103;-86
2023/05/11 06:09:53;;;;;;;11.18;5.70;;;11.50;99.90;;;;;;5087184;28;20044;-85
2023/05/11 06:12:18;;;;;;;9.00;5.57;;;11.50;99.90;;;;;;5088426;28;20039;-85
2023/05/11 06:14:44;;;;;;;7.38;4.95;;;11.50;99.90;;;;;;5071663;28;20050;-85
2023/05/11 06:17:10;;;;;;;8.48;5.47;;;11.60;99.90;;;;;;5087357;28;20047;-86
2023/05/11 06:19:37;;;;;;;7.35;5.13;;;11.60;99.90;;;;;;5073440;28;20044;-85
2023/05/11 06:22:03;;;;;;;8.32;5.28;;;11.70;99.90;;;;;;5104318;28;20508;-85
2023/05/11 06:24:28;;;;;;;14.18;6.05;;;11.80;99.90;;;;;;5089446;28;20137;-86
2023/05/11 06:26:54;;;;;;;12.25;5.47;;;11.90;99.90;;;;;;5087927;28;20040;-84
2023/05/11 06:29:21;;;;;;;10.73;6.03;;;12.00;99.90;;;;;;5071894;28;20142;-85
2023/05/11 06:31:51;;;;;;;11.02;6.55;;;12.10;99.90;;;;;;5104984;28;20051;-86
2023/05/11 06:34:21;;;;;;;9.98;5.55;;;12.20;99.90;;;;;;5088189;28;20052;-86
2023/05/11 06:36:47;;;;;;;8.95;6.30;;;12.30;99.90;;;;;;5089102;28;20035;-86
2023/05/11 06:39:13;;;;;;;12.95;7.43;;;12.30;99.90;;;;;;5103856;28;20059;-86
2023/05/11 06:41:39;;;;;;;14.68;7.40;;;12.40;99.90;;;;;;5106269;28;20126;-86
2023/05/11 06:44:04;;;;;;;12.43;7.18;;;12.40;99.90;;;;;;5104451;28;20584;-86
2023/05/11 06:46:31;;;;;;;11.43;6.95;;;12.40;99.90;;;;;;5088684;28;20503;-86
2023/05/11 06:48:56;;;;;;;13.50;7.75;;;12.40;99.90;;;;;;5088166;28;20349;-85
2023/05/11 06:51:22;;;;;;;12.82;7.93;;;12.40;99.90;;;;;;5087363;28;20096;-84
2023/05/11 06:53:49;;;;;;;11.00;6.97;;;12.40;99.90;;;;;;5105952;28;20043;-85
2023/05/11 06:56:15;;;;;;;12.65;7.03;;;12.40;99.90;;;;;;5104064;28;20040;-85
2023/05/11 06:58:41;;;;;;;11.30;7.85;;;12.40;99.90;;;;;;5088582;28;20047;-85
2023/05/11 07:01:07;;;;;;;11.23;6.70;;;12.40;99.90;;;;;;5071114;28;20455;-86
2023/05/11 07:03:33;;;;;;;12.93;7.35;;;12.40;99.90;;;;;;5088241;28;20039;-85
2023/05/11 07:05:59;;;;;;;10.65;7.18;;;12.40;99.90;;;;;;5087212;28;20134;-86
2023/05/11 07:08:25;;;;;;;13.02;8.48;;;12.50;99.90;;;;;;5088432;28;20472;-85
2023/05/11 07:10:51;;;;;;;11.15;7.53;;;12.90;99.90;;;;;;5104262;28;20054;-85
2023/05/11 07:13:17;;;;;;;13.10;8.35;;;12.70;99.90;;;;;;5086825;28;20044;-86
2023/05/11 07:15:42;;;;;;;12.02;8.25;;;12.70;99.90;;;;;;5088365;28;20250;-85
2023/05/11 07:18:08;;;;;;;12.85;8.07;;;12.70;99.90;;;;;;5103525;28;20425;-85
2023/05/11 07:20:38;;;;;;;12.73;8.88;;;12.80;99.90;;;;;;5071236;28;20492;-85
2023/05/11 07:23:04;;;;;;;11.32;7.78;;;12.80;99.90;;;;;;5103272;28;20047;-85
2023/05/11 07:25:30;;;;;;;13.02;8.57;;;12.90;99.90;;;;;;5086920;28;20488;-86
2023/05/11 07:27:56;;;;;;;10.30;7.63;;;12.90;99.90;;;;;;5070011;28;20068;-86
2023/05/11 07:30:22;;;;;;;10.05;7.35;;;12.90;99.90;;;;;;5086382;28;20127;-86
2023/05/11 07:32:48;;;;;;;13.30;7.65;;;12.90;99.90;;;;;;5087612;28;20048;-85
2023/05/11 07:35:14;;;;;;;13.75;8.20;;;12.80;99.90;;;;;;5102728;28;20054;-86
2023/05/11 07:37:40;;;;;;;12.00;7.50;;;12.80;99.90;;;;;;5070884;28;20050;-85
2023/05/11 07:40:08;;;;;;;11.60;7.30;;;12.80;99.90;;;;;;5102791;28;20501;-86
2023/05/11 07:42:33;;;;;;;10.80;7.32;;;12.80;99.90;;;;;;5104327;28;20044;-86
2023/05/11 07:44:59;;;;;;;11.02;7.80;;;12.90;99.90;;;;;;5103567;28;20039;-85
2023/05/11 07:47:25;;;;;;;10.70;6.70;;;12.90;99.90;;;;;;5086682;28;20077;-86
2023/05/11 07:49:51;;;;;;;12.90;7.95;;;13.00;99.90;;;;;;5087362;28;20516;-85
2023/05/11 07:52:17;;;;;;;13.05;7.38;;;13.00;99.90;;;;;;5068881;28;20042;-86
2023/05/11 07:54:43;;;;;;;10.27;7.32;;;13.00;99.90;;;;;;5087620;28;20126;-85
2023/05/11 07:57:10;;;;;;;15.57;8.10;;;13.00;99.90;;;;;;5102540;28;20048;-85
2023/05/11 07:59:36;;;;;;;10.25;7.40;;;13.00;99.90;;;;;;5069956;28;20583;-85
2023/05/11 08:02:03;;;;;;;10.70;7.32;;;13.00;99.90;;;;;;5103301;28;20087;-85
2023/05/11 08:04:29;;;;;;;15.50;8.40;;;12.90;99.90;;;;;;5102877;28;20085;-85
2023/05/11 08:06:55;;;;;;;9.90;7.80;;;12.90;99.90;;;;;;5104273;28;20040;-85
2023/05/11 08:09:21;;;;;;;10.40;7.25;;;12.80;99.90;;;;;;5069541;28;20121;-85
2023/05/11 08:11:48;;;;;;;11.70;7.40;;;12.80;99.90;;;;;;5087936;28;20155;-86
2023/05/11 08:14:14;;;;;;;11.13;8.15;;;12.80;99.90;;;;;;5069282;28;20035;-85
2023/05/11 08:16:40;;;;;;;12.75;8.38;;;12.80;99.90;;;;;;5103786;28;20055;-85
2023/05/11 08:19:06;;;;;;;12.25;7.25;;;12.80;99.90;;;;;;5085913;28;20048;-85
2023/05/11 08:21:31;;;;;;;16.88;6.53;;;12.80;99.90;;;;;;5102719;28;20043;-85
2023/05/11 08:23:57;;;;;;;9.43;6.63;;;12.80;99.90;;;;;;5104196;28;20040;-85
2023/05/11 08:26:23;;;;;;;11.93;6.55;;;12.90;99.90;;;;;;5102779;28;20523;-90
2023/05/11 08:28:51;;;;;;;7.50;5.60;;;12.90;99.90;;;;;;5087230;28;20609;-86
2023/05/11 08:31:17;;;;;;;8.38;5.70;;;12.90;99.90;;;;;;5102571;28;20153;-86
2023/05/11 08:33:43;;;;;;;6.82;5.05;;;13.10;99.90;;;;;;5087280;28;20601;-85
2023/05/11 08:36:11;;;;;;;13.30;6.97;;;13.10;99.90;;;;;;5070635;28;20040;-85
2023/05/11 08:38:37;;;;;;;8.57;5.45;;;13.10;99.90;;;;;;5106356;28;20040;-85
2023/05/11 08:41:03;;;;;;;7.75;5.38;;;13.20;99.90;;;;;;5090800;28;20042;-85
2023/05/11 08:43:31;;;;;;;7.75;5.80;;;13.20;99.90;;;;;;5089206;28;20508;-85
2023/05/11 08:46:01;;;;;;;8.43;5.68;;;13.20;99.90;;;;;;5091403;28;20039;-85
2023/05/11 08:48:28;;;;;;;8.40;5.90;;;13.30;99.90;;;;;;5089322;28;20058;-85
2023/05/11 08:50:54;;;;;;;8.85;6.18;;;13.30;99.90;;;;;;5090791;28;20067;-85
2023/05/11 08:53:21;;;;;;;7.93;5.40;;;13.30;99.90;;;;;;5090212;28;20043;-85
2023/05/11 08:55:48;;;;;;;7.93;5.45;;;13.30;99.90;;;;;;5106201;28;20047;-85
2023/05/11 08:58:19;;;;;;;8.60;5.55;;;13.30;99.90;;;;;;5090363;28;20084;-85
2023/05/11 09:00:48;;;;;;;9.88;6.07;;;13.40;99.90;;;;;;5089349;28;20050;-85
2023/05/11 09:03:16;;;;;;;8.35;6.32;;;14.40;99.90;;;;;;5091640;28;20047;-83
2023/05/11 09:05:46;;;;;;;8.95;6.15;;;13.50;99.90;;;;;;5106918;28;20090;-85
2023/05/11 09:08:13;;;;;;;8.15;5.82;;;13.50;99.90;;;;;;5091766;28;20062;-85
2023/05/11 09:10:39;;;;;;;9.55;6.15;;;14.80;99.90;;;;;;5075005;28;20039;-85
2023/05/11 09:13:05;;;;;;;9.43;5.57;;;13.60;99.90;;;;;;5109786;28;20066;-86
2023/05/11 09:15:31;;;;;;;10.50;6.65;;;13.60;99.90;;;;;;5093283;28;20524;-85
2023/05/11 09:17:57;;;;;;;9.73;6.15;;;13.70;99.90;;;;;;5091815;28;20048;-85
2023/05/11 09:20:28;;;;;;;10.68;6.85;;;13.80;99.90;;;;;;5093610;28;20058;-85
2023/05/11 09:22:55;;;;;;;8.77;6.68;;;13.90;99.90;;;;;;5110043;28;20130;-85
2023/05/11 09:25:22;;;;;;;10.57;6.90;;;14.00;99.90;;;;;;5093422;28;20567;-88
2023/05/11 09:27:48;;;;;;;8.60;6.68;;;14.10;99.90;;;;;;5110822;28;20043;-85
2023/05/11 09:30:16;;;;;;;7.72;6.00;;;14.20;99.90;;;;;;5108130;28;20060;-86
2023/05/11 09:32:53;;;;;;;8.15;6.18;;;14.30;99.90;;;;;;5110105;28;20092;-89
2023/05/11 09:35:30;;;;;;;8.30;6.78;;;15.80;99.90;;;;;;5101953;28;20048;-85
2023/05/11 09:38:03;;;;;;;11.27;7.35;;;14.70;99.90;;;;;;5098297;28;20043;-86
2023/05/11 09:40:31;;;;;;;9.00;6.82;;;14.80;99.90;;;;;;5097780;28;20044;-85
2023/05/11 09:42:57;;;;;;;8.57;7.25;;;14.90;99.90;;;;;;5096608;28;20044;-86
2023/05/11 09:45:43;;;;;;;9.85;7.22;;;15.00;99.90;;;;;;5096271;28;20051;-84
2023/05/11 09:48:30;;;;;;;10.98;7.60;;;15.20;99.90;;;;;;5077942;28;20082;-84
2023/05/11 09:51:15;;;;;;;8.38;6.78;;;15.20;99.90;;;;;;5115193;28;20044;-85
2023/05/11 09:53:44;;;;;;;10.45;7.03;;;15.30;99.90;;;;;;5080208;28;20043;-86
2023/05/11 09:56:11;;;;;;;9.38;6.88;;;15.50;99.90;;;;;;5112197;28;20102;-86
2023/05/11 09:58:50;;;;;;;10.07;7.20;;;15.70;99.90;;;;;;5078482;28;20047;-85
2023/05/11 10:01:26;;;;;;;13.90;8.43;;;16.00;99.90;;;;;;5094311;28;20408;-86
2023/05/11 10:03:55;;;;;;;9.27;7.18;;;16.20;99.90;;;;;;5116003;27;20130;-85
2023/05/11 10:06:21;;;;;;;9.68;7.32;;;16.10;99.90;;;;;;5078506;28;20035;-86
2023/05/11 10:08:48;;;;;;;8.73;7.18;;;15.90;99.90;;;;;;5079842;28;20107;-87
2023/05/11 10:11:14;;;;;;;11.18;7.28;;;15.90;99.90;;;;;;5081548;28;20040;-88
2023/05/11 10:13:41;;;;;;;8.20;6.28;;;15.80;99.90;;;;;;5083701;28;20125;-92
2023/05/11 10:16:10;;;;;;;7.82;6.63;;;15.70;99.90;;;;;;5122358;28;20044;-90
2023/05/11 10:18:36;;;;;;;8.73;7.07;;;15.80;99.90;;;;;;5104910;28;20054;-91
2023/05/11 10:21:03;;;;;;;8.38;6.35;;;15.90;99.90;;;;;;5114214;28;20047;-91
2023/05/11 10:23:32;;;;;;;8.65;6.53;;;16.00;99.90;;;;;;5095080;28;20047;-90
2023/05/11 10:25:59;;;;;;;8.50;6.40;;;16.10;99.90;;;;;;5093269;28;20044;-91
2023/05/11 10:28:25;;;;;;;8.40;6.03;;;16.20;99.90;;;;;;5093288;28;20044;-91
2023/05/11 10:30:52;;;;;;;7.50;5.80;;;16.10;99.90;;;;;;5091444;28;20413;-91
2023/05/11 10:33:18;;;;;;;6.68;5.72;;;16.10;99.90;;;;;;5090773;28;20047;-88
2023/05/11 10:35:45;;;;;;;7.28;5.88;;;16.20;99.90;;;;;;5105386;28;20052;-88
2023/05/11 10:38:13;;;;;;;7.43;5.28;;;16.40;99.90;;;;;;5106770;28;20093;-89
2023/05/11 10:40:42;;;;;;;6.88;5.35;;;16.70;99.90;;;;;;5089059;28;20092;-89
2023/05/11 10:43:42;;;;;;;6.20;4.68;;;17.00;99.90;;;;;;5089326;28;20403;-89
2023/05/11 10:46:23;;;;;;;7.78;5.65;;;17.10;99.90;;;;;;5084774;28;20047;-89
2023/05/11 10:49:37;;;;;;;4.93;3.63;;;17.20;99.90;;;;;;5088205;28;20079;-89
2023/05/11 10:52:30;;;;;;;4.95;3.70;;;17.30;99.90;;;;;;5083873;28;20051;-89
2023/05/11 10:55:05;;;;;;;5.13;4.30;;;17.40;99.90;;;;;;5089606;28;20048;-90
2023/05/11 10:57:33;;;;;;;4.95;3.85;;;17.30;99.90;;;;;;5088246;28;20043;-90
2023/05/11 11:00:42;;;;;;;6.63;4.03;;;17.30;99.90;;;;;;5105330;28;20522;-90
2023/05/11 11:03:11;;;;;;;5.22;3.70;;;17.40;99.90;;;;;;5089562;28;20043;-90
2023/05/11 11:05:38;;;;;;;5.03;4.22;;;17.40;99.90;;;;;;5088128;28;20129;-89
2023/05/11 11:08:07;;;;;;;5.38;3.65;;;17.30;99.90;;;;;;5092135;28;20924;-91
2023/05/11 11:10:45;;;;;;;4.72;3.72;;;17.30;99.90;;;;;;5089145;28;20480;-91
2023/05/11 11:13:12;;;;;;;6.13;4.03;;;17.30;99.90;;;;;;5089641;28;20054;-92
2023/05/11 11:15:53;;;;;;;5.07;3.65;;;17.20;99.90;;;;;;5088803;28;20309;-91
2023/05/11 11:18:22;;;;;;;4.85;3.03;;;17.00;99.90;;;;;;5105786;28;20048;-91
2023/05/11 11:20:51;;;;;;;3.92;2.97;;;16.90;99.90;;;;;;5089787;28;20092;-92
2023/05/11 11:23:42;;;;;;;4.70;3.55;;;16.90;99.90;;;;;;5088634;28;20035;-89
2023/05/11 11:26:15;;;;;;;3.17;2.55;;;17.00;99.90;;;;;;5088788;28;20131;-89
2023/05/11 11:28:53;;;;;;;3.15;2.63;;;17.00;99.90;;;;;;5089263;28;20392;-88
2023/05/11 11:31:22;;;;;;;2.08;1.77;;;17.10;99.90;;;;;;5086792;28;20412;-88
2023/05/11 11:33:47;;;;;;;4.22;1.95;;;17.30;99.90;;;;;;5088359;28;20047;-89
2023/05/11 11:36:15;;;;;;;2.33;1.83;;;17.40;99.90;;;;;;5070286;28;20054;-88
2023/05/11 11:39:00;;;;;;;3.83;1.33;;;17.60;99.90;;;;;;5088674;28;20109;-89
2023/05/11 11:41:29;;;;;;;3.35;1.60;;;17.80;99.90;;;;;;5104942;28;20059;-89
2023/05/11 11:43:55;;;;;;;13.05;1.70;;;18.00;99.90;;;;;;5087093;28;20075;-89
2023/05/11 11:46:28;;;;;;;2.97;1.42;;;18.30;99.90;;;;;;5087854;28;20085;-88
2023/05/11 11:49:12;;;;;;;2.13;1.50;;;18.50;99.90;;;;;;5086603;28;20121;-87
2023/05/11 11:51:40;;;;;;;1.50;1.15;;;18.50;99.90;;;;;;5071342;28;20094;-88
2023/05/11 11:54:05;;;;;;;1.58;1.10;;;18.50;99.90;;;;;;5087253;28;20085;-88
2023/05/11 11:56:31;;;;;;;1.92;1.23;;;18.50;99.90;;;;;;5071039;28;20082;-87
2023/05/11 11:59:04;;;;;;;2.65;1.40;;;18.50;99.90;;;;;;5086855;28;20071;-88
2023/05/11 12:01:36;;;;;;;2.47;1.10;;;18.50;99.90;;;;;;5103678;28;20050;-87
2023/05/11 12:04:30;;;;;;;5.72;1.90;;;18.30;99.90;;;;;;5087052;28;20043;-87
2023/05/11 12:06:57;;;;;;;2.47;0.95;;;18.20;99.90;;;;;;5086411;28;20043;-88
2023/05/11 12:09:23;;;;;;;1.40;1.30;;;18.20;99.90;;;;;;5103553;28;20047;-88
2023/05/11 12:11:51;;;;;;;2.42;1.17;;;18.30;99.90;;;;;;5072671;28;20047;-88
2023/05/11 12:14:18;;;;;;;2.25;1.40;;;18.50;99.90;;;;;;5107470;28;20112;-88
2023/05/11 12:17:12;;;;;;;3.05;1.85;;;18.60;99.90;;;;;;5108106;28;20047;-88
2023/05/11 12:19:38;;;;;;;2.97;1.90;;;18.70;99.90;;;;;;5090194;28;20039;-88
2023/05/11 12:22:03;;;;;;;2.50;1.80;;;18.80;99.90;;;;;;5091208;28;20416;-88
2023/05/11 12:24:29;;;;;;;3.88;2.08;;;19.00;99.90;;;;;;5091007;28;20047;-87
2023/05/11 12:26:56;;;;;;;3.08;1.90;;;19.00;99.90;;;;;;5091101;28;20485;-86
2023/05/11 12:29:22;;;;;;;3.92;2.42;;;18.90;99.90;;;;;;5107915;28;20044;-86
2023/05/11 12:31:48;;;;;;;4.20;2.92;;;18.80;99.90;;;;;;5106939;28;20089;-86
2023/05/11 12:34:17;;;;;;;4.32;3.22;;;18.80;99.90;;;;;;5091158;28;20075;-86
2023/05/11 12:36:48;;;;;;;7.30;4.32;;;18.80;99.90;;;;;;5090540;28;20043;-86
2023/05/11 12:39:25;;;;;;;4.82;3.28;;;18.60;99.90;;;;;;5107915;28;21030;-86
2023/05/11 12:41:54;;;;;;;2.85;1.92;;;18.60;99.90;;;;;;5090379;28;20441;-86
2023/05/11 12:44:22;;;;;;;2.85;1.88;;;18.60;99.90;;;;;;5107113;28;20384;-86
2023/05/11 12:46:49;;;;;;;4.03;2.17;;;18.70;99.90;;;;;;5108100;27;20397;-86
2023/05/11 12:49:19;;;;;;;3.55;2.63;;;18.70;99.90;;;;;;5106682;28;20112;-86